createdAt,value
2019-01-21T00:01:53.884Z,41.43
2019-01-21T00:04:25.028Z,41.17
2019-01-21T00:06:55.999Z,39.23
2019-01-21T00:09:26.948Z,40.03
2019-01-21T00:11:57.904Z,37.63
2019-01-21T00:14:28.871Z,40.87
2019-01-21T00:16:59.906Z,39.80
2019-01-21T00:19:30.944Z,40.00
2019-01-21T00:22:01.918Z,40.10
2019-01-21T00:24:32.844Z,40.50
2019-01-21T00:27:04.071Z,37.53
2019-01-21T00:29:36.038Z,37.70
2019-01-21T00:32:07.284Z,37.47
2019-01-21T00:34:57.592Z,38.63
2019-01-21T00:37:28.563Z,38.53
2019-01-21T00:39:59.652Z,36.57
2019-01-21T00:42:42.975Z,38.97
2019-01-21T00:45:14.561Z,41.87
2019-01-21T00:47:47.268Z,40.50
2019-01-21T00:50:18.357Z,37.93
2019-01-21T00:52:49.404Z,39.10
2019-01-21T00:55:20.410Z,39.23
2019-01-21T00:57:51.488Z,40.03
2019-01-21T01:00:25.863Z,38.13
2019-01-21T01:02:57.001Z,42.33
2019-01-21T01:05:28.308Z,38.30
2019-01-21T01:07:59.313Z,39.90
2019-01-21T01:10:30.216Z,39.97
2019-01-21T01:13:01.342Z,40.47
2019-01-21T01:15:32.255Z,40.97
2019-01-21T01:18:04.256Z,41.83
2019-01-21T01:20:35.222Z,40.10
2019-01-21T01:23:06.368Z,41.47
2019-01-21T01:25:37.268Z,41.53
2019-01-21T01:28:08.290Z,41.67
2019-01-21T01:30:39.263Z,40.30
2019-01-21T01:33:10.280Z,40.87
2019-01-21T01:35:41.216Z,41.30
2019-01-21T01:38:12.252Z,41.87
2019-01-21T01:40:43.267Z,41.17
2019-01-21T01:43:14.446Z,40.47
2019-01-21T01:45:45.528Z,39.70
2019-01-21T01:48:16.632Z,39.17
2019-01-21T01:50:47.857Z,41.50
2019-01-21T01:53:18.962Z,37.20
2019-01-21T01:55:50.412Z,38.23
2019-01-21T01:58:21.546Z,36.90
2019-01-21T02:00:52.821Z,37.33
2019-01-21T02:03:26.558Z,39.73
2019-01-21T02:05:57.792Z,40.10
2019-01-21T02:08:29.811Z,42.00
2019-01-21T02:11:07.128Z,37.20
2019-01-21T02:13:38.474Z,38.60
2019-01-21T02:16:09.619Z,39.77
2019-01-21T02:18:40.523Z,39.50
2019-01-21T02:21:11.494Z,39.90
2019-01-21T02:23:47.841Z,38.37
2019-01-21T02:26:23.403Z,36.23
2019-01-21T02:29:35.480Z,40.63
2019-01-21T02:32:50.445Z,40.10
2019-01-21T02:36:18.775Z,40.40
2019-01-21T02:39:39.073Z,39.23
2019-01-21T02:42:28.014Z,36.37
2019-01-21T02:45:17.385Z,37.07
2019-01-21T02:48:36.364Z,36.00
2019-01-21T02:52:19.469Z,37.93
2019-01-21T02:56:00.209Z,34.37
2019-01-21T02:59:25.530Z,35.17
2019-01-21T03:03:06.223Z,37.40
2019-01-21T03:06:49.709Z,37.37
2019-01-21T03:10:31.598Z,37.17
2019-01-21T03:13:59.875Z,39.70
2019-01-21T03:17:06.354Z,37.50
2019-01-21T03:20:36.250Z,37.17
2019-01-21T03:23:55.121Z,38.73
2019-01-21T03:26:50.079Z,40.90
2019-01-21T03:30:20.387Z,37.37
2019-01-21T03:33:43.395Z,41.30
2019-01-21T03:37:22.140Z,41.83
2019-01-21T03:40:43.480Z,41.30
2019-01-21T03:44:19.585Z,42.03
2019-01-21T03:48:06.066Z,39.67
2019-01-21T03:51:23.143Z,39.37
2019-01-21T03:54:21.915Z,38.83
2019-01-21T03:57:43.864Z,38.97
2019-01-21T04:00:57.646Z,42.23
2019-01-21T04:04:08.072Z,41.37
2019-01-21T04:06:54.549Z,37.07
2019-01-21T04:10:09.790Z,41.70
2019-01-21T04:13:44.788Z,42.67
2019-01-21T04:17:01.524Z,40.77
2019-01-21T04:20:04.544Z,36.03
2019-01-21T04:23:34.700Z,40.90
2019-01-21T04:26:42.819Z,38.13
2019-01-21T04:30:01.664Z,41.07
2019-01-21T04:32:51.249Z,41.87
2019-01-21T04:35:44.714Z,39.80
2019-01-21T04:39:09.859Z,41.30
2019-01-21T04:42:23.881Z,40.17
2019-01-21T04:45:23.152Z,41.17
2019-01-21T04:48:41.100Z,37.37
2019-01-21T04:51:44.921Z,39.57
2019-01-21T04:55:15.736Z,38.50
2019-01-21T04:58:37.556Z,37.17
2019-01-21T05:01:56.146Z,36.90
2019-01-21T05:05:01.904Z,35.57
2019-01-21T05:08:47.620Z,38.53
2019-01-21T05:12:21.106Z,38.70
2019-01-21T05:15:45.888Z,35.00
2019-01-21T05:19:12.144Z,36.47
2019-01-21T05:22:32.646Z,37.57
2019-01-21T05:26:03.203Z,37.60
2019-01-21T05:29:19.753Z,34.47
2019-01-21T05:32:22.956Z,34.50
2019-01-21T05:35:28.143Z,36.90
2019-01-21T05:38:51.442Z,35.90
2019-01-21T05:42:21.126Z,36.43
2019-01-21T05:45:55.918Z,34.40
2019-01-21T05:49:29.187Z,36.73
2019-01-21T05:52:52.844Z,35.73
2019-01-21T05:56:12.561Z,31.33
2019-01-21T05:59:29.471Z,36.37
2019-01-21T06:02:33.471Z,35.00
2019-01-21T06:05:39.743Z,35.63
2019-01-21T06:09:44.549Z,35.23
2019-01-21T06:13:30.757Z,33.60
2019-01-21T06:16:56.511Z,31.77
2019-01-21T06:20:10.075Z,34.50
2019-01-21T06:23:28.228Z,35.60
2019-01-21T06:26:49.027Z,33.83
2019-01-21T06:29:47.594Z,35.03
2019-01-21T06:33:05.643Z,36.00
2019-01-21T06:36:15.132Z,32.60
2019-01-21T06:39:51.850Z,35.97
2019-01-21T06:43:03.217Z,34.00
2019-01-21T06:46:07.889Z,35.70
2019-01-21T06:49:28.511Z,30.40
2019-01-21T06:52:46.630Z,33.03
2019-01-21T06:55:57.032Z,33.97
2019-01-21T06:59:31.338Z,35.50
2019-01-21T07:02:58.853Z,30.90
2019-01-21T07:06:38.950Z,32.37
2019-01-21T07:09:44.838Z,30.73
2019-01-21T07:12:45.893Z,34.40
2019-01-21T07:16:32.553Z,36.70
2019-01-21T07:19:27.053Z,32.77
2019-01-21T07:23:07.315Z,33.87
2019-01-21T07:26:20.021Z,34.43
2019-01-21T07:30:01.828Z,32.20
2019-01-21T07:33:30.932Z,34.20
2019-01-21T07:37:16.265Z,34.07
2019-01-21T07:40:39.969Z,35.77
2019-01-21T07:43:58.483Z,34.07
2019-01-21T07:47:32.899Z,34.77
2019-01-21T07:50:55.227Z,35.87
2019-01-21T07:54:18.418Z,33.50
2019-01-21T07:57:40.156Z,36.53
2019-01-21T08:00:39.468Z,37.13
2019-01-21T08:04:15.943Z,34.00
2019-01-21T08:07:37.778Z,37.50
2019-01-21T08:11:04.425Z,38.87
2019-01-21T08:13:54.643Z,37.37
2019-01-21T08:17:15.013Z,34.43
2019-01-21T08:20:26.521Z,36.23
2019-01-21T08:23:38.749Z,36.37
2019-01-21T08:26:33.881Z,35.77
2019-01-21T08:29:59.827Z,36.17
2019-01-21T08:33:37.500Z,35.67
2019-01-21T08:36:52.170Z,35.33
2019-01-21T08:40:26.826Z,36.70
2019-01-21T08:43:46.245Z,34.77
2019-01-21T08:47:23.680Z,32.97
2019-01-21T08:50:36.445Z,34.93
2019-01-21T08:53:40.566Z,32.33
2019-01-21T08:56:38.303Z,33.10
2019-01-21T08:59:47.247Z,34.67
2019-01-21T09:02:46.839Z,29.97
2019-01-21T09:05:56.429Z,35.30
2019-01-21T09:09:30.603Z,36.77
2019-01-21T09:13:19.807Z,32.60
2019-01-21T09:16:39.080Z,33.27
2019-01-21T09:20:22.939Z,35.23
2019-01-21T09:23:45.555Z,35.47
2019-01-21T09:27:05.585Z,29.10
2019-01-21T09:30:29.425Z,34.53
2019-01-21T09:33:42.860Z,31.90
2019-01-21T09:37:27.570Z,31.03
2019-01-21T09:40:36.924Z,38.20
2019-01-21T09:44:06.444Z,31.93
2019-01-21T09:46:48.022Z,34.43
2019-01-21T09:49:16.912Z,33.87
2019-01-21T09:52:13.412Z,28.27
2019-01-21T09:54:44.511Z,34.33
2019-01-21T09:57:25.673Z,34.60
2019-01-21T10:00:02.423Z,33.63
2019-01-21T10:02:49.262Z,32.80
2019-01-21T10:05:32.071Z,32.97
2019-01-21T10:08:28.362Z,36.17
2019-01-21T10:12:03.602Z,33.13
2019-01-21T10:15:17.730Z,34.53
2019-01-21T10:18:30.101Z,32.90
2019-01-21T10:22:05.334Z,30.60
2019-01-21T10:25:29.270Z,29.27
2019-01-21T10:28:45.461Z,28.87
2019-01-21T10:31:59.504Z,31.00
2019-01-21T10:34:50.375Z,29.37
2019-01-21T10:38:26.827Z,29.00
2019-01-21T10:41:58.238Z,29.27
2019-01-21T10:45:23.240Z,27.97
2019-01-21T10:48:37.821Z,28.20
2019-01-21T10:51:40.118Z,27.50
2019-01-21T10:55:03.530Z,28.47
2019-01-21T10:58:38.922Z,28.80
2019-01-21T11:01:56.460Z,27.60
2019-01-21T11:04:43.582Z,26.77
2019-01-21T11:08:13.412Z,24.10
2019-01-21T11:11:35.738Z,25.10
2019-01-21T11:15:04.362Z,25.97
2019-01-21T11:18:32.511Z,17.77
2019-01-21T11:22:04.214Z,28.37
2019-01-21T11:25:08.915Z,27.00
2019-01-21T11:28:20.847Z,28.27
2019-01-21T11:31:34.659Z,28.27
2019-01-21T11:35:17.635Z,24.93
2019-01-21T11:38:41.306Z,26.63
2019-01-21T11:42:00.095Z,26.20
2019-01-21T11:45:32.048Z,25.40
2019-01-21T11:48:51.085Z,26.30
2019-01-21T11:52:04.606Z,26.80
2019-01-21T11:55:32.014Z,24.03
2019-01-21T11:58:34.820Z,25.80
2019-01-21T12:01:42.038Z,28.27
2019-01-21T12:04:51.512Z,26.37
2019-01-21T12:07:58.210Z,23.80
2019-01-21T12:11:23.109Z,26.40
2019-01-21T12:15:24.967Z,23.40
2019-01-21T12:18:52.203Z,25.50
2019-01-21T12:22:13.377Z,26.70
2019-01-21T12:25:12.776Z,19.03
2019-01-21T12:28:28.976Z,25.63
2019-01-21T12:31:14.838Z,19.87
2019-01-21T12:34:10.175Z,25.17
2019-01-21T12:37:17.425Z,23.40
2019-01-21T12:40:20.718Z,23.90
2019-01-21T12:43:42.647Z,22.50
2019-01-21T12:46:31.686Z,24.83
2019-01-21T12:49:57.894Z,26.50
2019-01-21T12:52:50.333Z,25.97
2019-01-21T12:56:07.428Z,24.90
2019-01-21T12:59:29.831Z,23.73
2019-01-21T13:02:50.984Z,24.13
2019-01-21T13:06:08.157Z,20.37
2019-01-21T13:09:13.151Z,26.23
2019-01-21T13:12:48.949Z,25.20
2019-01-21T13:15:41.066Z,24.90
2019-01-21T13:19:06.538Z,24.73
2019-01-21T13:21:58.506Z,20.53
2019-01-21T13:25:09.515Z,24.30
2019-01-21T13:28:16.814Z,25.10
2019-01-21T13:31:56.737Z,25.93
2019-01-21T13:35:11.693Z,24.50
2019-01-21T13:38:37.036Z,27.33
2019-01-21T13:42:00.397Z,25.00
2019-01-21T13:45:41.394Z,25.77
2019-01-21T13:49:13.940Z,25.10
2019-01-21T13:52:17.438Z,20.13
2019-01-21T13:55:28.383Z,24.73
2019-01-21T13:58:51.317Z,23.43
2019-01-21T14:02:10.591Z,20.90
2019-01-21T14:05:38.288Z,27.20
2019-01-21T14:08:56.693Z,25.17
2019-01-21T14:12:22.740Z,26.27
2019-01-21T14:15:39.939Z,27.83
2019-01-21T14:19:08.010Z,26.20
2019-01-21T14:22:17.895Z,24.43
2019-01-21T14:25:33.187Z,27.73
2019-01-21T14:29:02.545Z,28.63
2019-01-21T14:32:23.587Z,27.37
2019-01-21T14:35:44.346Z,26.00
2019-01-21T14:39:07.050Z,26.43
2019-01-21T14:42:51.232Z,24.40
2019-01-21T14:46:07.412Z,24.57
2019-01-21T14:49:25.345Z,27.10
2019-01-21T14:53:11.100Z,28.40
2019-01-21T14:56:16.361Z,26.60
2019-01-21T14:59:51.802Z,29.27
2019-01-21T15:02:56.049Z,28.37
2019-01-21T15:06:13.731Z,29.20
2019-01-21T15:09:05.100Z,28.67
2019-01-21T15:12:40.050Z,27.50
2019-01-21T15:16:10.455Z,29.27
2019-01-21T15:19:15.418Z,27.60
2019-01-21T15:22:29.624Z,26.97
2019-01-21T15:26:06.102Z,27.23
2019-01-21T15:29:21.967Z,27.60
2019-01-21T15:32:22.217Z,26.07
2019-01-21T15:35:23.646Z,27.77
2019-01-21T15:38:55.465Z,28.33
2019-01-21T15:42:29.405Z,28.57
2019-01-21T15:45:42.352Z,30.97
2019-01-21T15:48:38.815Z,26.70
2019-01-21T15:51:32.540Z,28.17
2019-01-21T15:55:03.996Z,29.80
2019-01-21T15:58:05.293Z,27.23
2019-01-21T16:01:33.404Z,27.10
2019-01-21T16:04:44.328Z,27.17
2019-01-21T16:08:07.672Z,27.60
2019-01-21T16:11:47.696Z,28.97
2019-01-21T16:14:48.015Z,27.53
2019-01-21T16:17:57.886Z,29.60
2019-01-21T16:21:42.283Z,27.97
2019-01-21T16:25:13.132Z,27.93
2019-01-21T16:28:40.612Z,28.50
2019-01-21T16:31:43.292Z,27.43
2019-01-21T16:34:45.470Z,26.47
2019-01-21T16:38:08.326Z,28.90
2019-01-21T16:41:59.224Z,27.07
2019-01-21T16:44:30.257Z,27.73
2019-01-21T16:47:01.267Z,26.50
2019-01-21T16:49:32.433Z,29.87
2019-01-21T16:52:03.673Z,26.57
2019-01-21T16:54:34.981Z,27.10
2019-01-21T16:57:06.530Z,26.40
2019-01-21T16:59:40.751Z,27.40
2019-01-21T17:03:16.639Z,25.50
2019-01-21T17:05:47.965Z,28.03
2019-01-21T17:08:19.573Z,29.00
2019-01-21T17:10:52.265Z,28.80
2019-01-21T17:13:23.687Z,28.23
2019-01-21T17:15:55.141Z,26.67
2019-01-21T17:18:45.335Z,28.33
2019-01-21T17:21:16.481Z,29.57
2019-01-21T17:23:47.682Z,27.40
2019-01-21T17:26:22.059Z,26.63
2019-01-21T17:28:54.110Z,26.43
2019-01-21T17:31:25.694Z,27.17
2019-01-21T17:33:57.343Z,27.93
2019-01-21T17:36:30.413Z,29.27
2019-01-21T17:39:01.948Z,28.17
2019-01-21T17:41:35.091Z,25.90
2019-01-21T17:44:06.377Z,28.23
2019-01-21T17:46:37.733Z,28.57
2019-01-21T17:49:08.959Z,26.30
2019-01-21T17:51:40.117Z,26.30
2019-01-21T17:54:11.347Z,28.40
2019-01-21T17:56:42.687Z,29.30
2019-01-21T17:59:13.759Z,29.63
2019-01-21T18:01:44.934Z,28.07
2019-01-21T18:04:15.904Z,25.70
2019-01-21T18:06:47.287Z,27.90
2019-01-21T18:09:18.442Z,27.73
2019-01-21T18:11:49.987Z,27.27
2019-01-21T18:14:21.098Z,28.40
2019-01-21T18:16:52.694Z,27.93
2019-01-21T18:19:24.010Z,26.97
2019-01-21T18:21:55.309Z,27.83
2019-01-21T18:24:26.389Z,28.90
2019-01-21T18:26:57.419Z,30.70
2019-01-21T18:29:28.624Z,29.23
2019-01-21T18:31:59.747Z,28.30
2019-01-21T18:34:31.979Z,28.00
2019-01-21T18:37:05.045Z,27.33
2019-01-21T18:39:36.211Z,28.57
2019-01-21T18:42:10.296Z,27.30
2019-01-21T18:44:41.525Z,28.30
2019-01-21T18:47:13.987Z,30.53
2019-01-21T18:49:45.327Z,29.00
2019-01-21T18:52:16.998Z,28.80
2019-01-21T18:54:51.250Z,28.50
2019-01-21T18:57:22.494Z,25.90
2019-01-21T18:59:53.792Z,26.90
2019-01-21T19:02:24.968Z,28.83
2019-01-21T19:04:59.167Z,30.47
2019-01-21T19:07:30.336Z,32.30
2019-01-21T19:10:01.526Z,35.73
2019-01-21T19:12:32.989Z,31.47
2019-01-21T19:15:09.995Z,35.40
2019-01-21T19:17:41.497Z,34.17
2019-01-21T19:20:16.369Z,29.83
2019-01-21T19:22:49.747Z,35.27
2019-01-21T19:25:23.566Z,34.53
2019-01-21T19:27:55.672Z,32.20
2019-01-21T19:30:28.229Z,30.83
2019-01-21T19:32:59.555Z,31.97
2019-01-21T19:35:37.086Z,33.20
2019-01-21T19:38:08.291Z,28.70
2019-01-21T19:40:39.316Z,31.80
2019-01-21T19:43:10.434Z,34.37
2019-01-21T19:45:44.846Z,33.57
2019-01-21T19:48:17.552Z,32.57
2019-01-21T19:50:48.972Z,33.70
2019-01-21T19:53:20.435Z,35.20
2019-01-21T19:55:51.953Z,33.90
2019-01-21T19:58:23.260Z,32.20
2019-01-21T20:00:55.820Z,33.00
2019-01-21T20:03:29.928Z,32.80
2019-01-21T20:06:02.200Z,31.47
2019-01-21T20:08:33.753Z,32.33
2019-01-21T20:11:05.338Z,29.40
2019-01-21T20:13:36.883Z,16.93
2019-01-21T20:16:08.097Z,35.10
2019-01-21T20:18:39.078Z,33.27
2019-01-21T20:21:10.242Z,32.23
2019-01-21T20:23:42.490Z,31.60
2019-01-21T20:26:13.759Z,31.30
2019-01-21T20:28:44.944Z,32.40
2019-01-21T20:31:16.177Z,30.60
2019-01-21T20:33:51.969Z,30.73
2019-01-21T20:36:21.530Z,30.00
2019-01-21T20:38:53.071Z,30.97
2019-01-21T20:41:24.496Z,32.90
2019-01-21T20:43:56.219Z,31.80
2019-01-21T20:46:27.470Z,30.17
2019-01-21T20:48:58.766Z,33.97
2019-01-21T20:51:29.988Z,31.80
2019-01-21T20:54:01.374Z,29.37
2019-01-21T20:56:32.868Z,31.40
2019-01-21T20:59:04.249Z,31.53
2019-01-21T21:01:35.704Z,32.30
2019-01-21T21:04:09.536Z,31.33
2019-01-21T21:06:43.525Z,29.63
2019-01-21T21:09:45.394Z,30.40
2019-01-21T21:12:18.073Z,32.97
2019-01-21T21:14:49.826Z,33.20
2019-01-21T21:17:21.515Z,32.20
2019-01-21T21:19:53.028Z,34.10
2019-01-21T21:22:25.746Z,31.60
2019-01-21T21:24:58.082Z,30.90
2019-01-21T21:27:29.992Z,31.83
2019-01-21T21:30:01.568Z,34.03
2019-01-21T21:32:33.553Z,32.90
2019-01-21T21:35:05.883Z,33.27
2019-01-21T21:37:38.578Z,33.80
2019-01-21T21:40:14.258Z,35.43
2019-01-21T21:42:46.141Z,34.20
2019-01-21T21:45:20.150Z,35.80
2019-01-21T21:47:52.101Z,33.37
2019-01-21T21:50:30.327Z,33.60
2019-01-21T21:53:01.761Z,32.90
2019-01-21T21:55:33.395Z,33.33
2019-01-21T21:58:05.178Z,33.13
2019-01-21T22:00:36.693Z,32.47
2019-01-21T22:03:08.396Z,33.60
2019-01-21T22:05:40.029Z,31.60
2019-01-21T22:08:11.457Z,33.70
2019-01-21T22:10:42.976Z,31.37
2019-01-21T22:13:14.390Z,26.33
2019-01-21T22:15:49.030Z,33.67
2019-01-21T22:18:20.426Z,29.10
2019-01-21T22:20:51.960Z,34.90
2019-01-21T22:23:23.407Z,34.80
2019-01-21T22:25:54.682Z,33.97
2019-01-21T22:28:26.995Z,36.00
2019-01-21T22:31:00.208Z,34.43
2019-01-21T22:33:31.426Z,34.90
2019-01-21T22:36:02.442Z,36.07
2019-01-21T22:38:35.771Z,33.43
2019-01-21T22:41:07.260Z,35.90
2019-01-21T22:43:38.322Z,29.97
2019-01-21T22:46:09.516Z,36.97
2019-01-21T22:48:40.570Z,36.20
2019-01-21T22:51:11.484Z,33.00
2019-01-21T22:53:44.492Z,36.43
2019-01-21T22:56:15.530Z,35.00
2019-01-21T22:58:46.422Z,36.53
2019-01-21T23:01:33.092Z,33.90
2019-01-21T23:04:04.463Z,28.20
2019-01-21T23:06:37.119Z,35.80
2019-01-21T23:09:10.227Z,32.77
2019-01-21T23:11:41.604Z,36.00
2019-01-21T23:14:12.736Z,30.40
2019-01-21T23:16:43.823Z,34.57
2019-01-21T23:19:14.869Z,38.30
2019-01-21T23:21:48.454Z,36.43
2019-01-21T23:24:19.823Z,38.33
2019-01-21T23:26:50.889Z,37.70
2019-01-21T23:29:22.011Z,37.27
2019-01-21T23:31:52.927Z,35.20
2019-01-21T23:34:23.833Z,37.10
2019-01-21T23:36:54.801Z,33.80
2019-01-21T23:39:25.769Z,37.63
2019-01-21T23:41:56.814Z,40.33
2019-01-21T23:44:27.887Z,38.20
2019-01-21T23:46:59.189Z,38.03
2019-01-21T23:49:30.165Z,36.87
2019-01-21T23:52:01.141Z,38.10
2019-01-21T23:54:32.008Z,35.80
2019-01-21T23:57:02.894Z,36.23
2019-01-21T23:59:33.930Z,36.50
